Time;durP1;ratioP1;P1;durP2;ratioP2;P2;SDS_P1;SDS_P2;PMS_P1;PMS_P2;Temp;Humidity;BMP_temperature;BMP_pressure;BME280_temperature;BME280_humidity;BME280_pressure;Samples;Min_cycle;Max_cycle;Signal;HPM_P1;HPM_P2
2023/04/10 00:01:34;;;;;;;;;;;8.90;73.00;;;;;;6164149;23;19905;-95
2023/04/10 00:04:01;;;;;;;;;;;8.90;72.50;;;;;;6163685;23;20378;-95
2023/04/10 00:06:27;;;;;;;;;;;8.80;73.10;;;;;;6137341;23;19916;-96
2023/04/10 00:08:52;;;;;;;;;;;8.70;73.30;;;;;;6163691;23;20319;-96
2023/04/10 00:11:18;;;;;;;;;;;8.70;73.10;;;;;;6163467;23;19935;-96
2023/04/10 00:13:43;;;;;;;;;;;8.60;73.90;;;;;;6137062;23;20278;-95
2023/04/10 00:16:09;;;;;;;;;;;8.50;74.90;;;;;;6162576;23;20330;-95
2023/04/10 00:18:35;;;;;;;;;;;8.40;75.40;;;;;;6162967;23;19905;-95
2023/04/10 00:21:02;;;;;;;;;;;8.40;75.20;;;;;;6162814;23;20262;-96
2023/04/10 00:23:30;;;;;;;;;;;8.40;74.50;;;;;;6162174;23;19904;-95
2023/04/10 00:25:56;;;;;;;;;;;8.30;75.20;;;;;;6135517;23;20330;-94
2023/04/10 00:28:21;;;;;;;;;;;8.30;75.30;;;;;;6161844;23;19912;-96
2023/04/10 00:30:47;;;;;;;;;;;8.30;75.10;;;;;;6135519;23;20238;-95
2023/04/10 00:33:13;;;;;;;;;;;8.20;75.50;;;;;;6162148;23;19932;-95
2023/04/10 00:35:38;;;;;;;;;;;8.10;75.60;;;;;;6160859;23;20313;-94
2023/04/10 00:38:04;;;;;;;;;;;7.90;76.10;;;;;;6161861;23;19904;-94
2023/04/10 00:40:30;;;;;;;;;;;7.80;76.50;;;;;;6162231;23;19904;-96
2023/04/10 00:42:56;;;;;;;;;;;7.80;76.40;;;;;;6164726;23;19904;-96
2023/04/10 00:45:21;;;;;;;;;;;7.80;76.20;;;;;;6137992;23;20246;-96
2023/04/10 00:47:47;;;;;;;;;;;7.70;76.60;;;;;;6136448;23;20219;-96
2023/04/10 00:50:12;;;;;;;;;;;7.40;77.10;;;;;;6162834;23;19932;-94
2023/04/10 00:52:38;;;;;;;;;;;7.30;77.80;;;;;;6136667;23;20346;-95
2023/04/10 00:55:04;;;;;;;;;;;7.20;78.50;;;;;;6140975;23;20254;-94
2023/04/10 00:57:30;;;;;;;;;;;7.00;79.30;;;;;;6164553;23;19911;-96
2023/04/10 00:59:55;;;;;;;;;;;6.90;79.20;;;;;;6164800;23;19928;-95
2023/04/10 01:02:21;;;;;;;;;;;6.90;79.80;;;;;;6138507;23;19905;-96
2023/04/10 01:04:47;;;;;;;;;;;6.80;80.70;;;;;;6163794;23;19909;-94
2023/04/10 01:07:17;;;;;;;;;;;6.70;81.10;;;;;;6137369;23;20220;-96
2023/04/10 01:09:47;;;;;;;;;;;6.70;81.40;;;;;;6163261;23;19905;-95
2023/04/10 01:12:29;;;;;;;;;;;6.60;81.90;;;;;;6142431;23;19927;-95
2023/04/10 01:15:05;;;;;;;;;;;6.60;81.80;;;;;;6161349;23;19905;-96
2023/04/10 01:17:36;;;;;;;;;;;6.60;81.80;;;;;;6162123;23;20337;-95
2023/04/10 01:20:11;;;;;;;;;;;6.60;81.20;;;;;;6161826;23;19975;-96
2023/04/10 01:22:45;;;;;;;;;;;6.60;80.80;;;;;;6161017;23;20319;-96
2023/04/10 01:25:23;;;;;;;;;;;6.70;80.10;;;;;;6134234;23;19983;-95
2023/04/10 01:28:00;;;;;;;;;;;6.80;79.70;;;;;;6160792;23;19984;-96
2023/04/10 01:30:26;;;;;;;;;;;6.80;80.20;;;;;;6160447;23;19931;-96
2023/04/10 01:32:54;;;;;;;;;;;6.80;80.60;;;;;;6161293;23;19920;-96
2023/04/10 01:35:20;;;;;;;;;;;6.80;80.50;;;;;;6160715;23;19904;-96
2023/04/10 01:37:47;;;;;;;;;;;6.80;80.70;;;;;;6162009;23;20279;-96
2023/04/10 01:40:15;;;;;;;;;;;6.70;80.60;;;;;;6162331;23;19924;-94
2023/04/10 01:42:47;;;;;;;;;;;6.80;80.80;;;;;;6162496;23;19976;-96
2023/04/10 01:45:17;;;;;;;;;;;6.70;80.70;;;;;;6136151;23;20238;-96
2023/04/10 01:47:43;;;;;;;;;;;6.70;80.70;;;;;;6162353;23;19911;-95
2023/04/10 01:50:10;;;;;;;;;;;6.60;81.10;;;;;;6136228;23;19908;-95
2023/04/10 01:52:36;;;;;;;;;;;6.60;81.30;;;;;;6161904;23;19955;-96
2023/04/10 01:55:03;;;;;;;;;;;6.60;81.30;;;;;;6136079;23;19925;-96
2023/04/10 01:57:30;;;;;;;;;;;6.50;81.30;;;;;;6163275;23;19970;-95
2023/04/10 01:59:56;;;;;;;;;;;6.40;81.30;;;;;;6164485;23;19905;-96
2023/04/10 02:02:22;;;;;;;;;;;6.40;81.60;;;;;;6164532;23;20387;-96
2023/04/10 02:04:50;;;;;;;;;;;6.30;82.10;;;;;;6169324;23;19932;-96
2023/04/10 02:07:23;;;;;;;;;;;6.20;82.70;;;;;;6161074;23;19911;-95
2023/04/10 02:09:48;;;;;;;;;;;6.10;83.10;;;;;;6160822;23;19909;-96
2023/04/10 02:12:34;;;;;;;;;;;6.10;83.40;;;;;;6161129;23;19912;-96
2023/04/10 02:15:01;;;;;;;;;;;6.00;83.40;;;;;;6134442;23;19912;-95
2023/04/10 02:17:27;;;;;;;;;;;6.00;83.20;;;;;;6160904;23;19904;-96
2023/04/10 02:19:54;;;;;;;;;;;6.00;83.10;;;;;;6161503;23;19905;-96
2023/04/10 02:22:20;;;;;;;;;;;6.00;82.90;;;;;;6161231;23;19904;-96
2023/04/10 02:24:46;;;;;;;;;;;6.00;82.80;;;;;;6158952;23;19915;-95
2023/04/10 02:27:12;;;;;;;;;;;6.00;82.80;;;;;;6160535;23;19980;-96
2023/04/10 02:29:37;;;;;;;;;;;5.90;82.90;;;;;;6159349;23;20242;-95
2023/04/10 02:32:03;;;;;;;;;;;6.00;82.90;;;;;;6159953;23;19904;-95
2023/04/10 02:34:29;;;;;;;;;;;6.00;82.80;;;;;;6159669;23;19912;-96
2023/04/10 02:36:55;;;;;;;;;;;6.00;82.70;;;;;;6159798;23;20429;-95
2023/04/10 02:39:20;;;;;;;;;;;6.00;82.60;;;;;;6133648;23;20282;-96
2023/04/10 02:41:46;;;;;;;;;;;6.10;82.20;;;;;;6160983;23;19955;-95
2023/04/10 02:44:12;;;;;;;;;;;6.10;81.70;;;;;;6135293;23;19904;-96
2023/04/10 02:46:38;;;;;;;;;;;6.10;81.20;;;;;;6165741;23;19915;-96
2023/04/10 02:49:03;;;;;;;;;;;6.00;81.00;;;;;;6164311;23;19912;-96
2023/04/10 02:51:29;;;;;;;;;;;5.90;81.30;;;;;;6160667;23;19908;-95
2023/04/10 02:53:55;;;;;;;;;;;5.90;81.80;;;;;;6161303;23;19936;-96
2023/04/10 02:56:20;;;;;;;;;;;5.80;82.20;;;;;;6160391;23;19920;-95
2023/04/10 02:58:46;;;;;;;;;;;5.80;82.40;;;;;;6160083;23;19912;-95
2023/04/10 03:01:12;;;;;;;;;;;5.80;82.60;;;;;;6158711;23;19912;-96
2023/04/10 03:03:38;;;;;;;;;;;5.70;82.70;;;;;;6158723;23;19932;-96
2023/04/10 03:06:03;;;;;;;;;;;5.70;82.90;;;;;;6159252;23;20234;-96
2023/04/10 03:08:29;;;;;;;;;;;5.70;82.70;;;;;;6159425;23;20395;-95
2023/04/10 03:10:55;;;;;;;;;;;5.60;82.40;;;;;;6159926;23;19931;-95
2023/04/10 03:13:22;;;;;;;;;;;5.50;82.60;;;;;;6159085;23;20224;-95
2023/04/10 03:15:47;;;;;;;;;;;5.50;83.10;;;;;;6159830;23;19912;-96
2023/04/10 03:18:13;;;;;;;;;;;5.50;83.20;;;;;;6167155;23;19905;-96
2023/04/10 03:20:38;;;;;;;;;;;5.40;83.60;;;;;;6133714;23;19908;-96
2023/04/10 03:23:06;;;;;;;;;;;5.40;83.90;;;;;;6132888;23;19909;-96
2023/04/10 03:25:34;;;;;;;;;;;5.40;83.70;;;;;;6159248;23;19908;-96
2023/04/10 03:28:00;;;;;;;;;;;5.40;83.60;;;;;;6158944;23;19904;-96
2023/04/10 03:30:25;;;;;;;;;;;5.40;83.80;;;;;;6158543;23;19905;-96
2023/04/10 03:32:51;;;;;;;;;;;5.40;84.10;;;;;;6158827;23;19904;-96
2023/04/10 03:35:17;;;;;;;;;;;5.30;84.40;;;;;;6132094;23;19905;-95
2023/04/10 03:37:42;;;;;;;;;;;5.20;84.60;;;;;;6159036;23;19904;-96
2023/04/10 03:40:08;;;;;;;;;;;5.20;84.50;;;;;;6159025;23;19911;-96
2023/04/10 03:42:34;;;;;;;;;;;5.00;85.10;;;;;;6164881;23;19975;-95
2023/04/10 03:45:03;;;;;;;;;;;5.00;84.90;;;;;;6159385;23;19908;-96
2023/04/10 03:47:29;;;;;;;;;;;5.10;85.20;;;;;;6159585;23;19908;-95
2023/04/10 03:49:54;;;;;;;;;;;5.10;85.50;;;;;;6159137;23;19928;-94
2023/04/10 03:52:21;;;;;;;;;;;5.10;85.60;;;;;;6158444;23;20208;-95
2023/04/10 03:54:47;;;;;;;;;;;5.10;85.90;;;;;;6127007;23;19967;-95
2023/04/10 03:57:12;;;;;;;;;;;5.30;86.00;;;;;;6127249;23;20319;-95
2023/04/10 03:59:38;;;;;;;;;;;5.20;85.40;;;;;;6130986;23;19905;-96
2023/04/10 04:02:03;;;;;;;;;;;5.20;85.50;;;;;;6130716;23;20290;-95
2023/04/10 04:04:30;;;;;;;;;;;5.30;85.40;;;;;;6134179;23;20228;-96
2023/04/10 04:06:55;;;;;;;;;;;5.30;85.30;;;;;;6131564;23;19944;-96
2023/04/10 04:09:21;;;;;;;;;;;5.40;85.30;;;;;;6132550;23;19909;-96
2023/04/10 04:11:46;;;;;;;;;;;5.40;85.00;;;;;;6129716;23;19905;-96
2023/04/10 04:14:12;;;;;;;;;;;5.40;84.50;;;;;;6131470;23;19924;-95
2023/04/10 04:16:37;;;;;;;;;;;5.40;84.20;;;;;;6130562;23;19932;-96
2023/04/10 04:19:03;;;;;;;;;;;5.40;84.00;;;;;;6129241;23;19933;-95
2023/04/10 04:21:30;;;;;;;;;;;5.20;85.10;;;;;;6130640;23;19909;-95
2023/04/10 04:23:55;;;;;;;;;;;5.10;85.30;;;;;;6130797;23;19905;-95
2023/04/10 04:26:21;;;;;;;;;;;5.20;87.00;;;;;;6129185;23;19909;-95
2023/04/10 04:28:47;;;;;;;;;;;5.20;86.90;;;;;;6132626;23;19981;-96
2023/04/10 04:31:13;;;;;;;;;;;5.10;87.50;;;;;;6130247;23;20017;-96
2023/04/10 04:33:38;;;;;;;;;;;5.10;87.00;;;;;;6132696;23;19908;-96
2023/04/10 04:36:04;;;;;;;;;;;5.10;87.50;;;;;;6131839;23;19932;-96
2023/04/10 04:38:29;;;;;;;;;;;5.10;87.60;;;;;;6132563;23;19933;-96
2023/04/10 04:40:55;;;;;;;;;;;5.10;87.30;;;;;;6132396;23;19952;-96
2023/04/10 04:43:20;;;;;;;;;;;4.90;87.50;;;;;;6134575;23;19912;-96
2023/04/10 04:45:46;;;;;;;;;;;4.90;88.00;;;;;;6132211;23;19908;-96
2023/04/10 04:48:11;;;;;;;;;;;5.00;88.00;;;;;;6130466;23;20000;-95
2023/04/10 04:50:39;;;;;;;;;;;5.10;87.80;;;;;;6133817;23;19905;-95
2023/04/10 04:53:05;;;;;;;;;;;5.00;87.00;;;;;;6132830;23;19905;-95
2023/04/10 04:55:30;;;;;;;;;;;4.90;87.60;;;;;;6146813;23;19921;-96
2023/04/10 04:57:56;;;;;;;;;;;4.90;87.60;;;;;;6160897;23;19912;-95
2023/04/10 05:00:22;;;;;;;;;;;4.90;87.60;;;;;;6135482;23;19912;-96
2023/04/10 05:02:47;;;;;;;;;;;4.90;88.10;;;;;;6161937;23;19979;-96
2023/04/10 05:05:13;;;;;;;;;;;5.00;87.80;;;;;;6162620;23;19932;-96
2023/04/10 05:07:38;;;;;;;;;;;5.00;88.10;;;;;;6162431;23;19931;-95
2023/04/10 05:10:04;;;;;;;;;;;4.90;88.70;;;;;;6163152;23;20333;-95
2023/04/10 05:12:30;;;;;;;;;;;4.80;88.70;;;;;;6164028;23;20278;-96
2023/04/10 05:14:55;;;;;;;;;;;4.90;88.60;;;;;;6164818;23;19911;-95
2023/04/10 05:17:21;;;;;;;;;;;4.90;88.50;;;;;;6164986;23;19961;-96
2023/04/10 05:19:46;;;;;;;;;;;4.90;88.60;;;;;;6164899;23;20036;-96
2023/04/10 05:22:12;;;;;;;;;;;4.90;88.70;;;;;;6165534;23;19904;-96
2023/04/10 05:24:37;;;;;;;;;;;5.10;88.30;;;;;;6165948;23;19924;-96
2023/04/10 05:27:03;;;;;;;;;;;5.20;88.20;;;;;;6165902;23;20239;-95
2023/04/10 05:29:29;;;;;;;;;;;5.20;87.90;;;;;;6139460;23;19988;-96
2023/04/10 05:31:54;;;;;;;;;;;5.20;87.40;;;;;;6138602;23;19911;-96
2023/04/10 05:34:20;;;;;;;;;;;5.20;87.80;;;;;;6164159;23;20239;-95
2023/04/10 05:36:45;;;;;;;;;;;5.30;87.80;;;;;;6164027;23;19928;-96
2023/04/10 05:39:12;;;;;;;;;;;5.30;87.50;;;;;;6162483;23;19979;-96
2023/04/10 05:41:37;;;;;;;;;;;5.40;87.20;;;;;;6135614;23;19944;-95
2023/04/10 05:44:03;;;;;;;;;;;5.40;86.90;;;;;;6161880;23;19905;-96
2023/04/10 05:46:29;;;;;;;;;;;5.40;86.50;;;;;;6163659;23;19912;-96
2023/04/10 05:48:54;;;;;;;;;;;5.60;86.30;;;;;;6161718;23;19904;-95
2023/04/10 05:51:20;;;;;;;;;;;5.80;85.60;;;;;;6163943;23;20394;-96
2023/04/10 05:53:45;;;;;;;;;;;5.90;85.40;;;;;;6138767;23;20302;-94
2023/04/10 05:56:11;;;;;;;;;;;6.10;85.40;;;;;;6164345;23;19916;-95
2023/04/10 05:58:36;;;;;;;;;;;6.20;85.00;;;;;;6141582;23;20319;-95
2023/04/10 06:01:02;;;;;;;;;;;6.20;85.00;;;;;;6141506;23;19952;-96
2023/04/10 06:03:29;;;;;;;;;;;6.40;84.10;;;;;;6137973;23;20286;-96
2023/04/10 06:05:55;;;;;;;;;;;6.50;83.40;;;;;;6163883;23;20327;-96
2023/04/10 06:08:21;;;;;;;;;;;6.60;82.40;;;;;;6137741;23;19979;-96
2023/04/10 06:10:47;;;;;;;;;;;6.70;82.60;;;;;;6165218;23;19974;-96
2023/04/10 06:13:14;;;;;;;;;;;6.70;82.40;;;;;;6169665;23;19905;-96
2023/04/10 06:15:40;;;;;;;;;;;6.70;82.20;;;;;;6171485;23;19909;-96
2023/04/10 06:18:06;;;;;;;;;;;6.80;81.70;;;;;;6145931;23;19905;-96
2023/04/10 06:20:31;;;;;;;;;;;6.90;81.50;;;;;;6173597;23;19932;-96
2023/04/10 06:22:58;;;;;;;;;;;6.90;81.50;;;;;;6171762;23;19904;-96
2023/04/10 06:25:23;;;;;;;;;;;6.90;81.30;;;;;;6170492;23;19928;-96
2023/04/10 06:27:50;;;;;;;;;;;7.00;80.50;;;;;;6171020;23;19909;-96
2023/04/10 06:30:15;;;;;;;;;;;7.00;80.30;;;;;;6169854;23;19904;-96
2023/04/10 06:32:41;;;;;;;;;;;7.10;80.50;;;;;;6169011;23;19913;-95
2023/04/10 06:35:07;;;;;;;;;;;7.20;80.30;;;;;;6168234;23;19911;-94
2023/04/10 06:37:32;;;;;;;;;;;7.20;80.10;;;;;;6167599;23;19987;-95
2023/04/10 06:40:08;;;;;;;;;;;7.40;80.20;;;;;;6168684;23;19909;-96
2023/04/10 06:42:34;;;;;;;;;;;7.70;79.90;;;;;;6167195;23;19912;-96
2023/04/10 06:45:00;;;;;;;;;;;8.00;80.00;;;;;;6167627;23;19909;-96
2023/04/10 06:47:26;;;;;;;;;;;8.10;79.70;;;;;;6142785;23;19905;-96
2023/04/10 06:49:52;;;;;;;;;;;8.20;79.40;;;;;;6170366;23;20227;-96
2023/04/10 06:52:17;;;;;;;;;;;8.20;80.00;;;;;;6143632;23;19912;-95
2023/04/10 06:54:43;;;;;;;;;;;8.30;79.80;;;;;;6167310;23;19913;-96
2023/04/10 06:57:09;;;;;;;;;;;8.50;79.10;;;;;;6167606;23;19908;-96
2023/04/10 06:59:34;;;;;;;;;;;8.60;79.00;;;;;;6165350;23;20278;-96
2023/04/10 07:02:01;;;;;;;;;;;8.70;77.80;;;;;;6136706;23;19904;-96
2023/04/10 07:04:27;;;;;;;;;;;8.90;77.40;;;;;;6161696;23;19911;-96
2023/04/10 07:06:53;;;;;;;;;;;9.20;76.80;;;;;;6161262;23;19904;-96
2023/04/10 07:09:18;;;;;;;;;;;9.30;76.80;;;;;;6162976;23;19987;-96
2023/04/10 07:11:44;;;;;;;;;;;9.40;76.50;;;;;;6139158;23;19905;-96
2023/04/10 07:14:10;;;;;;;;;;;9.50;75.50;;;;;;6165364;23;19932;-96
2023/04/10 07:16:36;;;;;;;;;;;9.60;72.30;;;;;;6164405;23;20379;-95
2023/04/10 07:19:01;;;;;;;;;;;9.80;71.70;;;;;;6140825;23;20220;-95
2023/04/10 07:21:27;;;;;;;;;;;9.90;69.10;;;;;;6138860;23;20323;-96
2023/04/10 07:23:53;;;;;;;;;;;9.90;69.40;;;;;;6166557;23;19928;-96
2023/04/10 07:26:18;;;;;;;;;;;10.00;69.60;;;;;;6139353;23;19939;-96
2023/04/10 07:28:44;;;;;;;;;;;10.10;68.40;;;;;;6165140;23;19912;-95
2023/04/10 07:31:10;;;;;;;;;;;10.10;68.10;;;;;;6164590;23;19908;-96
2023/04/10 07:33:37;;;;;;;;;;;10.20;68.20;;;;;;6141834;23;20224;-96
2023/04/10 07:36:04;;;;;;;;;;;10.30;67.40;;;;;;6168810;23;19905;-96
2023/04/10 07:38:33;;;;;;;;;;;10.40;66.40;;;;;;6168157;23;19909;-96
2023/04/10 07:40:59;;;;;;;;;;;10.40;66.50;;;;;;6171142;23;19912;-96
2023/04/10 07:43:25;;;;;;;;;;;10.50;66.60;;;;;;6145274;23;19932;-96
2023/04/10 07:45:51;;;;;;;;;;;10.60;66.80;;;;;;6145294;23;19952;-96
2023/04/10 07:48:17;;;;;;;;;;;10.70;66.60;;;;;;6171316;23;19908;-96
2023/04/10 07:50:43;;;;;;;;;;;10.70;65.20;;;;;;6145630;23;19905;-96
2023/04/10 07:53:09;;;;;;;;;;;10.80;64.70;;;;;;6173099;23;19904;-96
2023/04/10 07:55:40;;;;;;;;;;;10.90;64.90;;;;;;6051595;23;2207397;-96
2023/04/10 07:58:06;;;;;;;;;;;10.90;60.10;;;;;;6148008;23;20342;-96
2023/04/10 08:00:32;;;;;;;;;;;11.00;60.40;;;;;;6148475;23;19909;-96
2023/04/10 08:02:58;;;;;;;;;;;11.00;59.40;;;;;;6171222;23;19935;-96
2023/04/10 08:05:23;;;;;;;;;;;11.10;60.20;;;;;;6144855;23;19909;-96
2023/04/10 08:07:49;;;;;;;;;;;11.10;58.70;;;;;;6141351;23;19916;-96
2023/04/10 08:10:14;;;;;;;;;;;11.10;59.20;;;;;;6167732;23;19943;-96
2023/04/10 08:12:40;;;;;;;;;;;11.20;59.80;;;;;;6168081;23;20031;-95
2023/04/10 08:15:06;;;;;;;;;;;11.40;59.80;;;;;;6143347;23;19905;-96
2023/04/10 08:17:31;;;;;;;;;;;11.50;58.40;;;;;;6145188;23;19927;-96
2023/04/10 08:19:57;;;;;;;;;;;11.60;58.50;;;;;;6144121;23;19963;-96
2023/04/10 08:22:23;;;;;;;;;;;11.70;57.50;;;;;;6169677;23;19905;-96
2023/04/10 08:24:48;;;;;;;;;;;11.70;57.60;;;;;;6143604;23;19932;-96
2023/04/10 08:27:15;;;;;;;;;;;11.80;60.40;;;;;;6145952;23;19932;-96
2023/04/10 08:29:41;;;;;;;;;;;11.80;58.90;;;;;;6145628;23;19905;-96
2023/04/10 08:32:07;;;;;;;;;;;11.90;59.00;;;;;;6144151;23;19931;-96
2023/04/10 08:34:32;;;;;;;;;;;11.90;59.00;;;;;;6172066;23;19979;-96
2023/04/10 08:36:58;;;;;;;;;;;11.90;58.20;;;;;;6172263;23;20283;-96
2023/04/10 08:39:24;;;;;;;;;;;11.80;57.60;;;;;;6146824;23;19978;-96
2023/04/10 08:41:50;;;;;;;;;;;11.90;59.10;;;;;;6150339;23;19909;-96
2023/04/10 08:44:15;;;;;;;;;;;12.00;59.70;;;;;;6152791;23;19905;-96
2023/04/10 08:46:42;;;;;;;;;;;12.10;58.70;;;;;;6178645;23;19908;-96
2023/04/10 08:49:10;;;;;;;;;;;12.10;58.10;;;;;;6152440;23;19928;-96
2023/04/10 08:51:42;;;;;;;;;;;12.10;57.50;;;;;;6177512;23;20040;-96
2023/04/10 08:54:40;;;;;;;;;;;12.20;57.80;;;;;;6177882;23;19975;-96
2023/04/10 08:57:07;;;;;;;;;;;12.30;58.30;;;;;;6152872;23;19965;-96
2023/04/10 08:59:33;;;;;;;;;;;12.40;57.10;;;;;;6151900;23;19929;-96
2023/04/10 09:01:59;;;;;;;;;;;12.50;57.90;;;;;;6174409;23;19905;-96
2023/04/10 09:04:25;;;;;;;;;;;12.60;54.50;;;;;;6147472;23;19911;-96
2023/04/10 09:06:51;;;;;;;;;;;12.70;55.90;;;;;;6171828;23;19916;-96
2023/04/10 09:09:17;;;;;;;;;;;12.70;55.20;;;;;;6171636;23;19905;-96
2023/04/10 09:11:55;;;;;;;;;;;12.60;54.10;;;;;;6175012;23;19904;-96
2023/04/10 09:14:25;;;;;;;;;;;12.60;55.20;;;;;;6178246;23;19915;-96
2023/04/10 09:16:52;;;;;;;;;;;12.60;54.20;;;;;;6151777;23;20323;-96
2023/04/10 09:19:44;;;;;;;;;;;12.60;53.90;;;;;;6128723;23;19908;-96
2023/04/10 09:22:10;;;;;;;;;;;12.70;55.40;;;;;;6146697;23;19915;-96
2023/04/10 09:24:39;;;;;;;;;;;12.80;54.10;;;;;;6177579;23;19889;-96
2023/04/10 09:27:06;;;;;;;;;;;12.90;53.10;;;;;;6153281;23;19905;-96
2023/04/10 09:29:47;;;;;;;;;;;13.00;53.70;;;;;;6153361;23;19929;-96
2023/04/10 09:32:12;;;;;;;;;;;13.10;53.30;;;;;;6174352;23;19911;-95
2023/04/10 09:34:51;;;;;;;;;;;13.10;56.00;;;;;;6171465;23;19939;-96
2023/04/10 09:37:19;;;;;;;;;;;13.10;56.50;;;;;;6171948;23;19905;-96
2023/04/10 09:39:45;;;;;;;;;;;13.10;55.30;;;;;;6171736;23;19944;-95
2023/04/10 09:42:11;;;;;;;;;;;13.10;54.20;;;;;;6146771;23;20274;-96
2023/04/10 09:44:38;;;;;;;;;;;13.10;55.60;;;;;;6173215;23;19912;-96
2023/04/10 09:47:13;;;;;;;;;;;13.10;54.90;;;;;;6173477;23;20238;-96
2023/04/10 09:49:48;;;;;;;;;;;13.10;55.90;;;;;;6173342;23;19928;-96
2023/04/10 09:52:18;;;;;;;;;;;13.20;53.00;;;;;;6173023;23;19908;-96
2023/04/10 09:54:44;;;;;;;;;;;13.30;55.90;;;;;;6147757;23;19924;-96
2023/04/10 09:57:12;;;;;;;;;;;13.50;56.40;;;;;;6173439;23;19916;-96
2023/04/10 09:59:39;;;;;;;;;;;13.70;53.70;;;;;;6148161;23;19905;-96
2023/04/10 10:02:05;;;;;;;;;;;13.90;53.20;;;;;;6148344;23;19969;-96
2023/04/10 10:04:32;;;;;;;;;;;14.00;53.90;;;;;;6148780;23;19905;-96
2023/04/10 10:06:57;;;;;;;;;;;14.10;53.40;;;;;;6148242;23;19904;-96
2023/04/10 10:09:24;;;;;;;;;;;14.00;53.20;;;;;;6175250;23;19911;-96
2023/04/10 10:11:51;;;;;;;;;;;13.90;51.70;;;;;;6150052;23;19932;-96
2023/04/10 10:14:17;;;;;;;;;;;13.90;51.40;;;;;;6176201;23;19948;-96
2023/04/10 10:16:46;;;;;;;;;;;13.90;53.80;;;;;;6148797;23;19948;-96
2023/04/10 10:19:20;;;;;;;;;;;14.00;53.00;;;;;;6172405;23;19905;-96
2023/04/10 10:21:46;;;;;;;;;;;14.00;53.20;;;;;;6146671;23;19911;-95
2023/04/10 10:24:12;;;;;;;;;;;14.00;52.40;;;;;;6172566;23;19904;-96
2023/04/10 10:26:38;;;;;;;;;;;14.00;51.60;;;;;;6175314;23;19932;-96
2023/04/10 10:29:05;;;;;;;;;;;14.10;53.00;;;;;;6149950;23;19991;-96
2023/04/10 10:31:36;;;;;;;;;;;14.30;55.10;;;;;;6149181;23;19911;-96
2023/04/10 10:34:04;;;;;;;;;;;14.50;52.70;;;;;;6147116;23;19924;-96
2023/04/10 10:36:32;;;;;;;;;;;14.70;52.60;;;;;;6173306;23;19905;-96
2023/04/10 10:39:18;;;;;;;;;;;14.70;51.80;;;;;;6172568;23;19936;-96
2023/04/10 10:41:53;;;;;;;;;;;14.70;50.70;;;;;;6127421;23;20242;-96
2023/04/10 10:44:38;;;;;;;;;;;14.60;50.30;;;;;;6172942;23;19954;-96
2023/04/10 10:47:23;;;;;;;;;;;14.60;50.00;;;;;;6125904;23;19916;-96
2023/04/10 10:49:53;;;;;;;;;;;14.60;49.60;;;;;;6172438;23;19928;-96
2023/04/10 10:52:42;;;;;;;;;;;14.60;46.60;;;;;;6172833;23;20294;-95
2023/04/10 10:55:37;;;;;;;;;;;14.70;49.10;;;;;;6133320;23;19917;-96
2023/04/10 10:58:04;;;;;;;;;;;14.90;51.30;;;;;;6129317;23;19909;-96
2023/04/10 11:00:49;;;;;;;;;;;15.10;48.90;;;;;;6152776;23;19915;-96
2023/04/10 11:03:15;;;;;;;;;;;15.00;49.80;;;;;;6152870;23;19909;-96
2023/04/10 11:05:51;;;;;;;;;;;15.10;49.30;;;;;;6152370;23;19920;-96
2023/04/10 11:08:16;;;;;;;;;;;15.10;50.40;;;;;;6179307;23;19920;-96
2023/04/10 11:11:02;;;;;;;;;;;15.20;48.50;;;;;;6177526;23;19905;-96
2023/04/10 11:13:31;;;;;;;;;;;15.30;48.50;;;;;;6154165;23;20321;-96
2023/04/10 11:15:57;;;;;;;;;;;15.50;49.80;;;;;;6155308;23;19904;-96
2023/04/10 11:18:42;;;;;;;;;;;15.70;49.10;;;;;;6154288;23;19912;-96
2023/04/10 11:21:09;;;;;;;;;;;15.90;47.70;;;;;;6178673;23;19911;-96
2023/04/10 11:23:35;;;;;;;;;;;16.10;44.20;;;;;;6174300;23;19939;-96
2023/04/10 11:26:01;;;;;;;;;;;16.10;44.60;;;;;;6149673;23;19908;-96
2023/04/10 11:28:37;;;;;;;;;;;16.00;46.00;;;;;;6149995;23;19904;-95
2023/04/10 11:31:18;;;;;;;;;;;15.80;45.20;;;;;;6175655;23;19904;-96
2023/04/10 11:33:47;;;;;;;;;;;15.80;48.00;;;;;;6148954;23;20343;-96
2023/04/10 11:36:16;;;;;;;;;;;15.90;47.10;;;;;;6171583;23;19988;-96
2023/04/10 11:38:52;;;;;;;;;;;15.90;44.30;;;;;;6146481;23;19924;-96
2023/04/10 11:41:18;;;;;;;;;;;16.00;45.10;;;;;;6148179;23;19911;-96
2023/04/10 11:43:44;;;;;;;;;;;16.10;46.60;;;;;;6173858;23;19983;-96
2023/04/10 11:46:09;;;;;;;;;;;16.30;42.70;;;;;;6174388;23;19909;-96
2023/04/10 11:48:36;;;;;;;;;;;16.40;43.70;;;;;;6149842;23;19905;-96
2023/04/10 11:51:09;;;;;;;;;;;16.60;42.10;;;;;;6177587;23;19944;-96
2023/04/10 11:53:35;;;;;;;;;;;16.80;42.50;;;;;;6178405;23;19905;-96
2023/04/10 11:56:01;;;;;;;;;;;17.10;44.10;;;;;;6175005;23;19920;-96
2023/04/10 11:58:29;;;;;;;;;;;17.40;42.70;;;;;;6151928;23;19905;-96
2023/04/10 12:00:59;;;;;;;;;;;17.70;41.50;;;;;;6177448;23;19912;-96
2023/04/10 12:03:32;;;;;;;;;;;17.70;41.20;;;;;;6150398;23;19905;-96
2023/04/10 12:05:58;;;;;;;;;;;17.70;41.10;;;;;;6150404;23;19892;-96
2023/04/10 12:08:34;;;;;;;;;;;17.70;41.50;;;;;;6152450;23;19912;-96
2023/04/10 12:11:00;;;;;;;;;;;17.70;40.50;;;;;;6152227;23;19905;-96
2023/04/10 12:13:26;;;;;;;;;;;17.70;39.30;;;;;;6152712;23;19909;-96
2023/04/10 12:15:53;;;;;;;;;;;17.70;41.40;;;;;;6178217;23;19904;-96
2023/04/10 12:18:19;;;;;;;;;;;17.80;41.10;;;;;;6152428;23;19931;-96
2023/04/10 12:20:46;;;;;;;;;;;17.60;40.30;;;;;;6179716;23;19905;-96
2023/04/10 12:23:12;;;;;;;;;;;17.80;41.30;;;;;;6157333;23;19927;-96
2023/04/10 12:25:41;;;;;;;;;;;18.10;40.70;;;;;;6157655;23;19983;-96
2023/04/10 12:28:08;;;;;;;;;;;18.30;38.40;;;;;;6183236;23;19928;-96
2023/04/10 12:30:36;;;;;;;;;;;18.40;39.00;;;;;;6157871;23;19904;-96
2023/04/10 12:33:10;;;;;;;;;;;18.90;40.60;;;;;;6183412;23;19889;-96
2023/04/10 12:35:47;;;;;;;;;;;18.90;40.00;;;;;;6183815;23;19949;-96
2023/04/10 12:38:33;;;;;;;;;;;19.00;38.70;;;;;;6182800;23;19905;-96
2023/04/10 12:41:00;;;;;;;;;;;19.20;37.80;;;;;;6157025;23;19904;-96
2023/04/10 12:43:34;;;;;;;;;;;19.50;37.00;;;;;;6181879;23;20311;-96
2023/04/10 12:46:02;;;;;;;;;;;20.00;35.40;;;;;;6158132;23;19913;-96
2023/04/10 12:48:29;;;;;;;;;;;20.50;35.30;;;;;;6157795;23;19897;-96
2023/04/10 12:50:58;;;;;;;;;;;21.10;34.60;;;;;;6157676;23;19949;-96
2023/04/10 12:53:28;;;;;;;;;;;20.70;33.60;;;;;;6182452;23;19909;-96
2023/04/10 12:56:01;;;;;;;;;;;21.00;34.10;;;;;;6173311;23;19905;-96
2023/04/10 12:58:32;;;;;;;;;;;21.80;32.00;;;;;;6158409;23;19900;-96
2023/04/10 13:01:06;;;;;;;;;;;22.40;32.00;;;;;;6158838;23;19916;-96
2023/04/10 13:03:41;;;;;;;;;;;22.80;31.90;;;;;;6175380;23;19912;-96
2023/04/10 13:06:08;;;;;;;;;;;22.40;30.20;;;;;;6129620;23;19939;-96
2023/04/10 13:08:54;;;;;;;;;;;22.20;31.30;;;;;;6153958;23;19919;-96
2023/04/10 13:11:25;;;;;;;;;;;22.40;30.70;;;;;;6152391;23;19916;-96
2023/04/10 13:14:00;;;;;;;;;;;22.30;29.70;;;;;;6152858;23;19899;-96
2023/04/10 13:16:30;;;;;;;;;;;22.80;29.60;;;;;;6153662;23;19915;-96
2023/04/10 13:24:12;;;;;;;;;;;23.40;28.10;;;;;;6181672;23;19912;-96
2023/04/10 13:26:43;;;;;;;;;;;23.00;29.00;;;;;;6182516;23;19911;-96
2023/04/10 13:29:13;;;;;;;;;;;23.80;28.30;;;;;;6158738;23;19893;-96
2023/04/10 13:31:43;;;;;;;;;;;24.20;28.90;;;;;;6150528;23;19932;-96
2023/04/10 13:34:09;;;;;;;;;;;24.50;29.40;;;;;;6157374;23;19912;-96
2023/04/10 13:36:39;;;;;;;;;;;24.10;28.10;;;;;;6157047;23;19920;-96
2023/04/10 13:39:09;;;;;;;;;;;23.50;28.40;;;;;;6182763;23;19901;-96
2023/04/10 13:41:36;;;;;;;;;;;23.70;29.20;;;;;;6158201;23;19909;-96
2023/04/10 13:44:04;;;;;;;;;;;23.70;30.30;;;;;;6156597;23;19889;-96
2023/04/10 13:46:34;;;;;;;;;;;24.00;28.40;;;;;;6156511;23;19928;-96
2023/04/10 13:49:01;;;;;;;;;;;24.20;29.40;;;;;;6155467;23;19904;-96
2023/04/10 13:51:28;;;;;;;;;;;24.00;27.90;;;;;;6155539;23;19904;-96
2023/04/10 13:53:54;;;;;;;;;;;23.80;28.70;;;;;;6155122;23;19905;-96
2023/04/10 13:56:21;;;;;;;;;;;24.00;30.30;;;;;;6155866;23;19905;-96
2023/04/10 13:58:48;;;;;;;;;;;24.60;29.70;;;;;;6155553;23;19904;-96
2023/04/10 14:01:15;;;;;;;;;;;24.80;28.70;;;;;;6156266;23;19905;-96
2023/04/10 14:03:41;;;;;;;;;;;25.50;27.10;;;;;;6155672;23;19908;-96
2023/04/10 14:06:07;;;;;;;;;;;25.70;28.20;;;;;;6154599;23;19916;-96
2023/04/10 14:08:36;;;;;;;;;;;25.80;26.90;;;;;;6155070;23;19928;-96
2023/04/10 14:11:04;;;;;;;;;;;25.50;26.30;;;;;;6156169;23;19905;-96
2023/04/10 14:13:34;;;;;;;;;;;25.30;27.20;;;;;;6154832;23;19935;-96
2023/04/10 14:16:02;;;;;;;;;;;24.70;28.60;;;;;;6154677;23;19911;-96
2023/04/10 14:18:29;;;;;;;;;;;24.60;28.90;;;;;;6155812;23;19928;-96
2023/04/10 14:20:59;;;;;;;;;;;24.80;28.80;;;;;;6155194;23;19908;-96
2023/04/10 14:23:26;;;;;;;;;;;25.20;27.70;;;;;;6131865;23;19927;-96
2023/04/10 14:25:53;;;;;;;;;;;25.20;27.20;;;;;;6180366;23;19912;-96
2023/04/10 14:28:18;;;;;;;;;;;24.80;28.00;;;;;;6154580;23;19957;-96
2023/04/10 14:30:47;;;;;;;;;;;24.40;28.90;;;;;;6153820;23;19905;-96
2023/04/10 14:33:13;;;;;;;;;;;24.90;28.40;;;;;;6154033;23;19927;-96